sensor_id;sensor_type;location;lat;lon;timestamp;pressure;altitude;pressure_sealevel;temperature;humidity
63715;BME280;49858;48.956;9.076;2023-08-31T00:02:19;98375.88;;;14.96;100.00
63715;BME280;49858;48.956;9.076;2023-08-31T00:04:47;98374.69;;;15.22;100.00
63715;BME280;49858;48.956;9.076;2023-08-31T00:07:14;98364.38;;;15.05;100.00
63715;BME280;49858;48.956;9.076;2023-08-31T00:09:42;98351.34;;;14.88;100.00
63715;BME280;49858;48.956;9.076;2023-08-31T00:12:12;98352.09;;;14.85;100.00
63715;BME280;49858;48.956;9.076;2023-08-31T00:14:40;98360.84;;;15.12;100.00
63715;BME280;49858;48.956;9.076;2023-08-31T00:17:08;98362.78;;;14.75;100.00
63715;BME280;49858;48.956;9.076;2023-08-31T00:19:36;98370.97;;;14.40;100.00
63715;BME280;49858;48.956;9.076;2023-08-31T00:22:04;98383.28;;;14.49;100.00
63715;BME280;49858;48.956;9.076;2023-08-31T00:24:32;98383.97;;;14.32;100.00
63715;BME280;49858;48.956;9.076;2023-08-31T00:27:03;98385.13;;;14.35;100.00
63715;BME280;49858;48.956;9.076;2023-08-31T00:29:34;98390.66;;;14.27;100.00
63715;BME280;49858;48.956;9.076;2023-08-31T00:32:03;98396.88;;;14.10;100.00
63715;BME280;49858;48.956;9.076;2023-08-31T00:34:31;98402.84;;;14.16;100.00
63715;BME280;49858;48.956;9.076;2023-08-31T00:36:59;98397.72;;;14.18;100.00
63715;BME280;49858;48.956;9.076;2023-08-31T00:39:32;98402.13;;;14.26;100.00
63715;BME280;49858;48.956;9.076;2023-08-31T00:42:01;98415.34;;;14.65;100.00
63715;BME280;49858;48.956;9.076;2023-08-31T00:44:31;98406.41;;;14.13;100.00
63715;BME280;49858;48.956;9.076;2023-08-31T00:47:01;98401.63;;;14.10;100.00
63715;BME280;49858;48.956;9.076;2023-08-31T00:49:30;98412.63;;;13.99;100.00
63715;BME280;49858;48.956;9.076;2023-08-31T00:51:58;98414.97;;;13.93;100.00
63715;BME280;49858;48.956;9.076;2023-08-31T00:54:28;98417.81;;;14.07;100.00
63715;BME280;49858;48.956;9.076;2023-08-31T00:56:56;98412.78;;;14.27;100.00
63715;BME280;49858;48.956;9.076;2023-08-31T00:59:24;98413.22;;;14.37;100.00
63715;BME280;49858;48.956;9.076;2023-08-31T01:01:58;98400.22;;;14.41;100.00
63715;BME280;49858;48.956;9.076;2023-08-31T01:04:36;98387.38;;;14.04;100.00
63715;BME280;49858;48.956;9.076;2023-08-31T01:07:15;98386.84;;;14.50;100.00
63715;BME280;49858;48.956;9.076;2023-08-31T01:09:50;98386.47;;;14.59;100.00
63715;BME280;49858;48.956;9.076;2023-08-31T01:12:28;98384.44;;;14.48;100.00
63715;BME280;49858;48.956;9.076;2023-08-31T01:15:02;98382.97;;;14.90;100.00
63715;BME280;49858;48.956;9.076;2023-08-31T01:17:38;98378.59;;;14.75;100.00
63715;BME280;49858;48.956;9.076;2023-08-31T01:20:11;98378.56;;;14.68;100.00
63715;BME280;49858;48.956;9.076;2023-08-31T01:22:46;98384.66;;;14.15;100.00
63715;BME280;49858;48.956;9.076;2023-08-31T01:25:16;98391.75;;;14.09;100.00
63715;BME280;49858;48.956;9.076;2023-08-31T01:27:44;98385.81;;;14.10;100.00
63715;BME280;49858;48.956;9.076;2023-08-31T01:30:14;98401.31;;;14.22;100.00
63715;BME280;49858;48.956;9.076;2023-08-31T01:32:43;98396.72;;;13.81;100.00
63715;BME280;49858;48.956;9.076;2023-08-31T01:35:15;98398.84;;;14.06;100.00
63715;BME280;49858;48.956;9.076;2023-08-31T01:37:50;98408.66;;;13.96;100.00
63715;BME280;49858;48.956;9.076;2023-08-31T01:40:24;98406.69;;;13.97;100.00
63715;BME280;49858;48.956;9.076;2023-08-31T01:42:55;98414.16;;;13.89;100.00
63715;BME280;49858;48.956;9.076;2023-08-31T01:45:24;98429.91;;;13.81;100.00
63715;BME280;49858;48.956;9.076;2023-08-31T01:47:53;98426.84;;;13.97;100.00
63715;BME280;49858;48.956;9.076;2023-08-31T01:50:21;98429.34;;;14.17;100.00
63715;BME280;49858;48.956;9.076;2023-08-31T01:52:48;98435.75;;;14.39;100.00
63715;BME280;49858;48.956;9.076;2023-08-31T01:55:17;98427.88;;;14.44;100.00
63715;BME280;49858;48.956;9.076;2023-08-31T01:57:46;98429.78;;;14.26;100.00
63715;BME280;49858;48.956;9.076;2023-08-31T02:00:25;98427.72;;;14.16;100.00
63715;BME280;49858;48.956;9.076;2023-08-31T02:02:57;98431.69;;;14.15;100.00
63715;BME280;49858;48.956;9.076;2023-08-31T02:05:25;98425.63;;;14.61;100.00
63715;BME280;49858;48.956;9.076;2023-08-31T02:07:53;98412.13;;;14.52;100.00
63715;BME280;49858;48.956;9.076;2023-08-31T02:10:22;98416.03;;;14.47;100.00
63715;BME280;49858;48.956;9.076;2023-08-31T02:12:51;98410.47;;;14.44;100.00
63715;BME280;49858;48.956;9.076;2023-08-31T02:15:19;98411.72;;;14.53;100.00
63715;BME280;49858;48.956;9.076;2023-08-31T02:17:47;98407.88;;;14.79;100.00
63715;BME280;49858;48.956;9.076;2023-08-31T02:20:15;98403.47;;;14.61;100.00
63715;BME280;49858;48.956;9.076;2023-08-31T02:22:43;98404.84;;;14.19;100.00
63715;BME280;49858;48.956;9.076;2023-08-31T02:25:10;98403.28;;;14.21;100.00
63715;BME280;49858;48.956;9.076;2023-08-31T02:27:39;98408.88;;;14.39;100.00
63715;BME280;49858;48.956;9.076;2023-08-31T02:30:09;98410.56;;;14.54;100.00
63715;BME280;49858;48.956;9.076;2023-08-31T02:32:37;98406.06;;;14.28;100.00
63715;BME280;49858;48.956;9.076;2023-08-31T02:35:06;98405.31;;;14.31;100.00
63715;BME280;49858;48.956;9.076;2023-08-31T02:37:34;98406.47;;;14.27;100.00
63715;BME280;49858;48.956;9.076;2023-08-31T02:40:02;98412.91;;;14.49;100.00
63715;BME280;49858;48.956;9.076;2023-08-31T02:42:31;98411.63;;;14.32;100.00
63715;BME280;49858;48.956;9.076;2023-08-31T02:44:59;98418.41;;;14.45;100.00
63715;BME280;49858;48.956;9.076;2023-08-31T02:47:29;98418.34;;;14.31;100.00
63715;BME280;49858;48.956;9.076;2023-08-31T02:49:57;98414.28;;;14.11;100.00
63715;BME280;49858;48.956;9.076;2023-08-31T02:52:26;98418.31;;;14.27;100.00
63715;BME280;49858;48.956;9.076;2023-08-31T02:54:54;98425.84;;;14.34;100.00
63715;BME280;49858;48.956;9.076;2023-08-31T02:57:22;98421.03;;;14.20;100.00
63715;BME280;49858;48.956;9.076;2023-08-31T02:59:53;98423.38;;;14.15;100.00
63715;BME280;49858;48.956;9.076;2023-08-31T03:02:21;98422.19;;;14.16;100.00
63715;BME280;49858;48.956;9.076;2023-08-31T03:04:50;98426.75;;;13.87;100.00
63715;BME280;49858;48.956;9.076;2023-08-31T03:07:18;98433.63;;;14.11;100.00
63715;BME280;49858;48.956;9.076;2023-08-31T03:09:48;98434.31;;;14.63;100.00
63715;BME280;49858;48.956;9.076;2023-08-31T03:12:17;98431.59;;;14.80;100.00
63715;BME280;49858;48.956;9.076;2023-08-31T03:14:45;98418.22;;;15.07;100.00
63715;BME280;49858;48.956;9.076;2023-08-31T03:17:15;98416.25;;;15.19;100.00
63715;BME280;49858;48.956;9.076;2023-08-31T03:19:43;98419.03;;;15.01;100.00
63715;BME280;49858;48.956;9.076;2023-08-31T03:22:13;98421.91;;;14.39;100.00
63715;BME280;49858;48.956;9.076;2023-08-31T03:24:40;98431.69;;;15.02;100.00
63715;BME280;49858;48.956;9.076;2023-08-31T03:27:08;98429.69;;;15.09;100.00
63715;BME280;49858;48.956;9.076;2023-08-31T03:29:38;98425.22;;;14.66;100.00
63715;BME280;49858;48.956;9.076;2023-08-31T03:32:06;98421.03;;;15.32;100.00
63715;BME280;49858;48.956;9.076;2023-08-31T03:34:34;98411.13;;;15.56;100.00
63715;BME280;49858;48.956;9.076;2023-08-31T03:37:02;98407.19;;;15.50;100.00
63715;BME280;49858;48.956;9.076;2023-08-31T03:39:33;98406.81;;;15.77;100.00
63715;BME280;49858;48.956;9.076;2023-08-31T03:42:01;98405.56;;;15.17;100.00
63715;BME280;49858;48.956;9.076;2023-08-31T03:44:29;98410.84;;;14.31;100.00
63715;BME280;49858;48.956;9.076;2023-08-31T03:46:57;98427.38;;;14.24;100.00
63715;BME280;49858;48.956;9.076;2023-08-31T03:49:25;98427.19;;;14.62;100.00
63715;BME280;49858;48.956;9.076;2023-08-31T03:51:53;98429.56;;;14.63;100.00
63715;BME280;49858;48.956;9.076;2023-08-31T03:54:21;98438.88;;;14.26;100.00
63715;BME280;49858;48.956;9.076;2023-08-31T03:56:50;98444.66;;;14.03;100.00
63715;BME280;49858;48.956;9.076;2023-08-31T03:59:18;98447.16;;;14.23;100.00
63715;BME280;49858;48.956;9.076;2023-08-31T04:01:46;98455.75;;;14.83;100.00
63715;BME280;49858;48.956;9.076;2023-08-31T04:04:14;98441.06;;;14.69;100.00
63715;BME280;49858;48.956;9.076;2023-08-31T04:06:42;98440.91;;;13.74;100.00
63715;BME280;49858;48.956;9.076;2023-08-31T04:09:09;98452.91;;;13.96;100.00
63715;BME280;49858;48.956;9.076;2023-08-31T04:11:38;98468.00;;;14.10;100.00
63715;BME280;49858;48.956;9.076;2023-08-31T04:14:07;98459.75;;;13.62;100.00
63715;BME280;49858;48.956;9.076;2023-08-31T04:16:34;98472.16;;;13.34;100.00
63715;BME280;49858;48.956;9.076;2023-08-31T04:19:02;98468.31;;;13.46;100.00
63715;BME280;49858;48.956;9.076;2023-08-31T04:21:30;98463.78;;;13.71;100.00
63715;BME280;49858;48.956;9.076;2023-08-31T04:23:58;98467.44;;;13.38;100.00
63715;BME280;49858;48.956;9.076;2023-08-31T04:26:26;98477.50;;;13.20;100.00
63715;BME280;49858;48.956;9.076;2023-08-31T04:28:54;98475.38;;;13.43;100.00
63715;BME280;49858;48.956;9.076;2023-08-31T04:31:24;98475.59;;;13.68;100.00
63715;BME280;49858;48.956;9.076;2023-08-31T04:33:52;98475.25;;;13.73;100.00
63715;BME280;49858;48.956;9.076;2023-08-31T04:36:23;98478.00;;;13.70;100.00
63715;BME280;49858;48.956;9.076;2023-08-31T04:38:52;98474.56;;;13.39;100.00
63715;BME280;49858;48.956;9.076;2023-08-31T04:41:20;98495.13;;;13.42;100.00
63715;BME280;49858;48.956;9.076;2023-08-31T04:43:47;98494.34;;;13.89;100.00
63715;BME280;49858;48.956;9.076;2023-08-31T04:46:15;98493.66;;;13.55;100.00
63715;BME280;49858;48.956;9.076;2023-08-31T04:48:45;98492.22;;;13.31;100.00
63715;BME280;49858;48.956;9.076;2023-08-31T04:51:27;98498.44;;;13.62;100.00
63715;BME280;49858;48.956;9.076;2023-08-31T04:53:55;98487.88;;;13.71;100.00
63715;BME280;49858;48.956;9.076;2023-08-31T04:56:23;98488.97;;;13.63;100.00
63715;BME280;49858;48.956;9.076;2023-08-31T04:58:51;98497.63;;;14.09;100.00
63715;BME280;49858;48.956;9.076;2023-08-31T05:01:19;98497.94;;;13.93;100.00
63715;BME280;49858;48.956;9.076;2023-08-31T05:03:48;98493.13;;;14.45;100.00
63715;BME280;49858;48.956;9.076;2023-08-31T05:06:16;98484.72;;;15.07;100.00
63715;BME280;49858;48.956;9.076;2023-08-31T05:08:44;98475.22;;;15.12;100.00
63715;BME280;49858;48.956;9.076;2023-08-31T05:11:12;98465.03;;;14.40;100.00
63715;BME280;49858;48.956;9.076;2023-08-31T05:13:40;98479.03;;;14.02;100.00
63715;BME280;49858;48.956;9.076;2023-08-31T05:16:09;98483.25;;;13.86;100.00
63715;BME280;49858;48.956;9.076;2023-08-31T05:18:38;98490.44;;;13.94;100.00
63715;BME280;49858;48.956;9.076;2023-08-31T05:21:08;98499.16;;;13.99;100.00
63715;BME280;49858;48.956;9.076;2023-08-31T05:23:36;98498.75;;;13.97;100.00
63715;BME280;49858;48.956;9.076;2023-08-31T05:26:04;98500.34;;;13.98;100.00
63715;BME280;49858;48.956;9.076;2023-08-31T05:28:31;98509.75;;;13.90;100.00
63715;BME280;49858;48.956;9.076;2023-08-31T05:31:00;98511.00;;;14.00;100.00
63715;BME280;49858;48.956;9.076;2023-08-31T05:33:28;98521.59;;;13.91;100.00
63715;BME280;49858;48.956;9.076;2023-08-31T05:36:01;98513.88;;;14.14;100.00
63715;BME280;49858;48.956;9.076;2023-08-31T05:38:31;98531.44;;;14.43;100.00
63715;BME280;49858;48.956;9.076;2023-08-31T05:41:06;98524.22;;;14.24;100.00
63715;BME280;49858;48.956;9.076;2023-08-31T05:43:34;98523.41;;;14.20;100.00
63715;BME280;49858;48.956;9.076;2023-08-31T05:46:02;98537.81;;;14.47;100.00
63715;BME280;49858;48.956;9.076;2023-08-31T05:48:31;98528.25;;;14.38;100.00
63715;BME280;49858;48.956;9.076;2023-08-31T05:50:59;98528.69;;;14.43;100.00
63715;BME280;49858;48.956;9.076;2023-08-31T05:53:26;98520.41;;;14.47;100.00
63715;BME280;49858;48.956;9.076;2023-08-31T05:55:56;98524.72;;;14.44;100.00
63715;BME280;49858;48.956;9.076;2023-08-31T05:58:31;98521.38;;;14.69;100.00
63715;BME280;49858;48.956;9.076;2023-08-31T06:00:59;98518.03;;;14.45;100.00
63715;BME280;49858;48.956;9.076;2023-08-31T06:03:27;98515.72;;;14.51;100.00
63715;BME280;49858;48.956;9.076;2023-08-31T06:05:56;98526.22;;;15.00;100.00
63715;BME280;49858;48.956;9.076;2023-08-31T06:08:23;98525.84;;;15.02;100.00
63715;BME280;49858;48.956;9.076;2023-08-31T06:10:51;98519.53;;;15.01;100.00
63715;BME280;49858;48.956;9.076;2023-08-31T06:13:20;98521.00;;;14.77;100.00
63715;BME280;49858;48.956;9.076;2023-08-31T06:15:48;98523.47;;;15.04;100.00
63715;BME280;49858;48.956;9.076;2023-08-31T06:18:16;98527.91;;;15.23;100.00
63715;BME280;49858;48.956;9.076;2023-08-31T06:20:44;98525.38;;;14.86;100.00
63715;BME280;49858;48.956;9.076;2023-08-31T06:23:12;98532.56;;;15.04;100.00
63715;BME280;49858;48.956;9.076;2023-08-31T06:25:40;98531.91;;;15.40;100.00
63715;BME280;49858;48.956;9.076;2023-08-31T06:28:08;98535.78;;;15.17;100.00
63715;BME280;49858;48.956;9.076;2023-08-31T06:30:40;98513.28;;;15.40;100.00
63715;BME280;49858;48.956;9.076;2023-08-31T06:33:12;98523.16;;;15.27;100.00
63715;BME280;49858;48.956;9.076;2023-08-31T06:35:41;98527.56;;;15.39;100.00
63715;BME280;49858;48.956;9.076;2023-08-31T06:38:09;98541.69;;;15.08;100.00
63715;BME280;49858;48.956;9.076;2023-08-31T06:40:37;98544.13;;;15.28;100.00
63715;BME280;49858;48.956;9.076;2023-08-31T06:43:05;98547.44;;;15.98;100.00
63715;BME280;49858;48.956;9.076;2023-08-31T06:45:32;98540.16;;;15.29;100.00
63715;BME280;49858;48.956;9.076;2023-08-31T06:48:02;98542.59;;;15.41;100.00
63715;BME280;49858;48.956;9.076;2023-08-31T06:50:33;98546.16;;;15.42;100.00
63715;BME280;49858;48.956;9.076;2023-08-31T06:53:02;98544.50;;;15.19;100.00
63715;BME280;49858;48.956;9.076;2023-08-31T06:55:31;98540.94;;;15.19;100.00
63715;BME280;49858;48.956;9.076;2023-08-31T06:58:01;98531.91;;;15.47;100.00
63715;BME280;49858;48.956;9.076;2023-08-31T07:00:29;98526.41;;;15.57;100.00
63715;BME280;49858;48.956;9.076;2023-08-31T07:02:59;98528.81;;;15.77;100.00
63715;BME280;49858;48.956;9.076;2023-08-31T07:05:33;98530.75;;;15.58;100.00
63715;BME280;49858;48.956;9.076;2023-08-31T07:08:02;98540.72;;;15.77;100.00
63715;BME280;49858;48.956;9.076;2023-08-31T07:10:30;98546.25;;;15.88;100.00
63715;BME280;49858;48.956;9.076;2023-08-31T07:12:58;98532.78;;;16.01;100.00
63715;BME280;49858;48.956;9.076;2023-08-31T07:15:26;98541.91;;;16.05;100.00
63715;BME280;49858;48.956;9.076;2023-08-31T07:17:55;98546.13;;;16.95;100.00
63715;BME280;49858;48.956;9.076;2023-08-31T07:20:23;98542.63;;;16.80;100.00
63715;BME280;49858;48.956;9.076;2023-08-31T07:22:53;98539.13;;;16.01;100.00
63715;BME280;49858;48.956;9.076;2023-08-31T07:25:21;98558.53;;;16.37;100.00
63715;BME280;49858;48.956;9.076;2023-08-31T07:27:49;98542.63;;;16.80;100.00
63715;BME280;49858;48.956;9.076;2023-08-31T07:30:17;98550.53;;;16.78;100.00
63715;BME280;49858;48.956;9.076;2023-08-31T07:32:45;98551.97;;;17.22;100.00
63715;BME280;49858;48.956;9.076;2023-08-31T07:35:13;98553.34;;;16.57;100.00
63715;BME280;49858;48.956;9.076;2023-08-31T07:37:42;98562.03;;;16.84;100.00
63715;BME280;49858;48.956;9.076;2023-08-31T07:40:11;98565.63;;;16.67;100.00
63715;BME280;49858;48.956;9.076;2023-08-31T07:42:39;98552.84;;;17.08;100.00
63715;BME280;49858;48.956;9.076;2023-08-31T07:45:08;98562.44;;;16.79;100.00
63715;BME280;49858;48.956;9.076;2023-08-31T07:47:37;98555.34;;;16.56;100.00
63715;BME280;49858;48.956;9.076;2023-08-31T07:50:06;98560.50;;;16.54;100.00
63715;BME280;49858;48.956;9.076;2023-08-31T07:52:39;98564.09;;;16.26;100.00
63715;BME280;49858;48.956;9.076;2023-08-31T07:55:08;98571.63;;;16.29;100.00
63715;BME280;49858;48.956;9.076;2023-08-31T07:57:37;98572.78;;;16.46;100.00
63715;BME280;49858;48.956;9.076;2023-08-31T08:00:06;98568.44;;;16.52;100.00
63715;BME280;49858;48.956;9.076;2023-08-31T08:02:38;98569.59;;;16.58;100.00
63715;BME280;49858;48.956;9.076;2023-08-31T08:05:06;98567.66;;;16.41;100.00
63715;BME280;49858;48.956;9.076;2023-08-31T08:07:34;98559.66;;;16.65;100.00
63715;BME280;49858;48.956;9.076;2023-08-31T08:10:03;98559.28;;;16.80;100.00
63715;BME280;49858;48.956;9.076;2023-08-31T08:12:38;98560.19;;;17.51;100.00
63715;BME280;49858;48.956;9.076;2023-08-31T08:15:07;98554.34;;;17.24;100.00
63715;BME280;49858;48.956;9.076;2023-08-31T08:17:35;98572.59;;;17.32;100.00
63715;BME280;49858;48.956;9.076;2023-08-31T08:20:04;98565.31;;;17.52;100.00
63715;BME280;49858;48.956;9.076;2023-08-31T08:22:32;98565.16;;;16.97;100.00
63715;BME280;49858;48.956;9.076;2023-08-31T08:25:00;98565.22;;;16.65;100.00
63715;BME280;49858;48.956;9.076;2023-08-31T08:27:29;98566.00;;;16.86;100.00
63715;BME280;49858;48.956;9.076;2023-08-31T08:29:59;98577.91;;;16.94;100.00
63715;BME280;49858;48.956;9.076;2023-08-31T08:32:27;98577.78;;;17.19;100.00
63715;BME280;49858;48.956;9.076;2023-08-31T08:34:55;98569.28;;;18.14;100.00
63715;BME280;49858;48.956;9.076;2023-08-31T08:37:23;98572.59;;;17.28;100.00
63715;BME280;49858;48.956;9.076;2023-08-31T08:39:52;98581.94;;;17.74;100.00
63715;BME280;49858;48.956;9.076;2023-08-31T08:42:23;98567.63;;;16.55;100.00
63715;BME280;49858;48.956;9.076;2023-08-31T08:44:52;98567.56;;;16.91;100.00
63715;BME280;49858;48.956;9.076;2023-08-31T08:47:21;98574.03;;;17.58;100.00
63715;BME280;49858;48.956;9.076;2023-08-31T08:49:49;98576.63;;;17.94;100.00
63715;BME280;49858;48.956;9.076;2023-08-31T08:52:18;98560.22;;;17.40;100.00
63715;BME280;49858;48.956;9.076;2023-08-31T08:54:47;98560.25;;;17.36;100.00
63715;BME280;49858;48.956;9.076;2023-08-31T08:57:15;98551.78;;;17.54;100.00
63715;BME280;49858;48.956;9.076;2023-08-31T08:59:43;98564.66;;;17.97;100.00
63715;BME280;49858;48.956;9.076;2023-08-31T09:02:11;98557.31;;;17.65;100.00
63715;BME280;49858;48.956;9.076;2023-08-31T09:04:40;98567.91;;;17.07;100.00
63715;BME280;49858;48.956;9.076;2023-08-31T09:07:08;98577.66;;;17.51;100.00
63715;BME280;49858;48.956;9.076;2023-08-31T09:09:48;98572.72;;;16.96;100.00
63715;BME280;49858;48.956;9.076;2023-08-31T09:12:17;98568.22;;;17.97;100.00
63715;BME280;49858;48.956;9.076;2023-08-31T09:14:56;98563.91;;;17.93;100.00
63715;BME280;49858;48.956;9.076;2023-08-31T09:17:25;98554.28;;;17.31;100.00
63715;BME280;49858;48.956;9.076;2023-08-31T09:20:05;98565.94;;;17.04;100.00
63715;BME280;49858;48.956;9.076;2023-08-31T09:22:34;98583.06;;;17.80;100.00
63715;BME280;49858;48.956;9.076;2023-08-31T09:25:03;98576.25;;;17.88;100.00
63715;BME280;49858;48.956;9.076;2023-08-31T09:27:36;98552.88;;;19.06;100.00
63715;BME280;49858;48.956;9.076;2023-08-31T09:30:06;98566.88;;;17.60;100.00
63715;BME280;49858;48.956;9.076;2023-08-31T09:32:35;98564.47;;;17.62;100.00
63715;BME280;49858;48.956;9.076;2023-08-31T09:35:08;98560.91;;;18.18;100.00
63715;BME280;49858;48.956;9.076;2023-08-31T09:37:55;98551.41;;;18.56;100.00
63715;BME280;49858;48.956;9.076;2023-08-31T09:40:24;98541.53;;;18.07;100.00
63715;BME280;49858;48.956;9.076;2023-08-31T09:42:52;98519.38;;;18.37;100.00
63715;BME280;49858;48.956;9.076;2023-08-31T09:45:25;98509.78;;;17.97;100.00
63715;BME280;49858;48.956;9.076;2023-08-31T09:48:11;98503.19;;;19.01;100.00
63715;BME280;49858;48.956;9.076;2023-08-31T09:50:46;98507.66;;;18.53;100.00
63715;BME280;49858;48.956;9.076;2023-08-31T09:53:16;98512.63;;;18.35;100.00
63715;BME280;49858;48.956;9.076;2023-08-31T09:55:44;98507.47;;;18.75;100.00
63715;BME280;49858;48.956;9.076;2023-08-31T09:58:17;98508.50;;;18.50;100.00
63715;BME280;49858;48.956;9.076;2023-08-31T10:00:46;98513.84;;;18.72;100.00
63715;BME280;49858;48.956;9.076;2023-08-31T10:03:14;98518.22;;;18.35;100.00
63715;BME280;49858;48.956;9.076;2023-08-31T10:05:48;98537.50;;;18.11;100.00
63715;BME280;49858;48.956;9.076;2023-08-31T10:08:17;98528.34;;;18.94;100.00
63715;BME280;49858;48.956;9.076;2023-08-31T10:10:46;98532.97;;;19.04;100.00
63715;BME280;49858;48.956;9.076;2023-08-31T10:13:13;98535.50;;;18.53;100.00
63715;BME280;49858;48.956;9.076;2023-08-31T10:15:43;98536.34;;;19.22;100.00
63715;BME280;49858;48.956;9.076;2023-08-31T10:18:11;98528.97;;;20.16;100.00
63715;BME280;49858;48.956;9.076;2023-08-31T10:20:42;98534.47;;;19.12;100.00
63715;BME280;49858;48.956;9.076;2023-08-31T10:23:13;98535.38;;;19.36;100.00
63715;BME280;49858;48.956;9.076;2023-08-31T10:26:01;98563.63;;;18.70;100.00
63715;BME280;49858;48.956;9.076;2023-08-31T10:28:39;98543.03;;;19.28;100.00
63715;BME280;49858;48.956;9.076;2023-08-31T10:31:08;98531.41;;;19.91;100.00
63715;BME280;49858;48.956;9.076;2023-08-31T10:33:40;98528.75;;;18.92;100.00
63715;BME280;49858;48.956;9.076;2023-08-31T10:36:13;98539.31;;;18.74;100.00
63715;BME280;49858;48.956;9.076;2023-08-31T10:38:45;98534.19;;;19.64;100.00
63715;BME280;49858;48.956;9.076;2023-08-31T10:41:20;98534.22;;;20.14;100.00
63715;BME280;49858;48.956;9.076;2023-08-31T10:43:50;98526.56;;;20.19;100.00
63715;BME280;49858;48.956;9.076;2023-08-31T10:46:25;98531.75;;;19.39;100.00
63715;BME280;49858;48.956;9.076;2023-08-31T10:48:55;98535.03;;;19.61;100.00
63715;BME280;49858;48.956;9.076;2023-08-31T10:51:24;98531.69;;;19.73;100.00
63715;BME280;49858;48.956;9.076;2023-08-31T10:54:04;98535.00;;;20.62;100.00
63715;BME280;49858;48.956;9.076;2023-08-31T10:56:32;98533.47;;;20.10;100.00
63715;BME280;49858;48.956;9.076;2023-08-31T10:59:01;98525.09;;;19.56;100.00
63715;BME280;49858;48.956;9.076;2023-08-31T11:01:51;98528.06;;;19.76;100.00
63715;BME280;49858;48.956;9.076;2023-08-31T11:04:20;98521.81;;;20.15;100.00
63715;BME280;49858;48.956;9.076;2023-08-31T11:06:49;98519.28;;;20.01;100.00
63715;BME280;49858;48.956;9.076;2023-08-31T11:09:20;98521.38;;;19.66;100.00
63715;BME280;49858;48.956;9.076;2023-08-31T11:11:48;98519.22;;;20.28;100.00
63715;BME280;49858;48.956;9.076;2023-08-31T11:14:16;98524.38;;;20.53;100.00
63715;BME280;49858;48.956;9.076;2023-08-31T11:16:44;98516.44;;;19.78;100.00
63715;BME280;49858;48.956;9.076;2023-08-31T11:19:12;98521.22;;;19.50;100.00
63715;BME280;49858;48.956;9.076;2023-08-31T11:21:40;98508.06;;;18.89;100.00
63715;BME280;49858;48.956;9.076;2023-08-31T11:24:08;98516.00;;;19.25;100.00
63715;BME280;49858;48.956;9.076;2023-08-31T11:26:38;98512.50;;;19.99;100.00
63715;BME280;49858;48.956;9.076;2023-08-31T11:29:06;98512.34;;;19.86;100.00
63715;BME280;49858;48.956;9.076;2023-08-31T11:31:38;98519.59;;;19.80;100.00
63715;BME280;49858;48.956;9.076;2023-08-31T11:34:07;98512.72;;;20.11;100.00
63715;BME280;49858;48.956;9.076;2023-08-31T11:36:39;98509.53;;;19.62;100.00
63715;BME280;49858;48.956;9.076;2023-08-31T11:39:08;98506.69;;;19.35;100.00
63715;BME280;49858;48.956;9.076;2023-08-31T11:41:38;98521.13;;;19.57;100.00
63715;BME280;49858;48.956;9.076;2023-08-31T11:44:09;98510.47;;;20.03;100.00
63715;BME280;49858;48.956;9.076;2023-08-31T11:46:38;98514.41;;;20.29;100.00
63715;BME280;49858;48.956;9.076;2023-08-31T11:49:07;98505.31;;;20.25;100.00
63715;BME280;49858;48.956;9.076;2023-08-31T11:51:35;98511.47;;;20.79;100.00
63715;BME280;49858;48.956;9.076;2023-08-31T11:54:04;98499.81;;;20.84;100.00
63715;BME280;49858;48.956;9.076;2023-08-31T11:56:40;98498.53;;;21.45;100.00
63715;BME280;49858;48.956;9.076;2023-08-31T11:59:09;98497.16;;;22.51;97.71
63715;BME280;49858;48.956;9.076;2023-08-31T12:01:39;98497.22;;;21.33;100.00
63715;BME280;49858;48.956;9.076;2023-08-31T12:04:11;98503.88;;;21.19;100.00
63715;BME280;49858;48.956;9.076;2023-08-31T12:06:40;98504.91;;;22.14;100.00
63715;BME280;49858;48.956;9.076;2023-08-31T12:09:08;98505.66;;;20.50;100.00
63715;BME280;49858;48.956;9.076;2023-08-31T12:11:36;98514.69;;;19.87;100.00
63715;BME280;49858;48.956;9.076;2023-08-31T12:14:19;98496.53;;;21.46;100.00
63715;BME280;49858;48.956;9.076;2023-08-31T12:16:47;98509.50;;;20.80;100.00
63715;BME280;49858;48.956;9.076;2023-08-31T12:19:16;98511.78;;;21.05;100.00
63715;BME280;49858;48.956;9.076;2023-08-31T12:21:45;98519.59;;;19.80;100.00
63715;BME280;49858;48.956;9.076;2023-08-31T12:24:13;98513.56;;;20.08;100.00
63715;BME280;49858;48.956;9.076;2023-08-31T12:26:43;98505.41;;;21.04;100.00
63715;BME280;49858;48.956;9.076;2023-08-31T12:29:12;98501.53;;;21.18;100.00
63715;BME280;49858;48.956;9.076;2023-08-31T12:31:40;98510.16;;;19.97;100.00
63715;BME280;49858;48.956;9.076;2023-08-31T12:34:10;98502.59;;;19.71;100.00
63715;BME280;49858;48.956;9.076;2023-08-31T12:36:38;98496.44;;;20.53;100.00
63715;BME280;49858;48.956;9.076;2023-08-31T12:39:08;98496.94;;;20.68;100.00
63715;BME280;49858;48.956;9.076;2023-08-31T12:41:37;98515.97;;;19.83;100.00
63715;BME280;49858;48.956;9.076;2023-08-31T12:44:05;98499.94;;;20.34;100.00
63715;BME280;49858;48.956;9.076;2023-08-31T12:46:35;98509.56;;;19.86;100.00
63715;BME280;49858;48.956;9.076;2023-08-31T12:49:02;98512.22;;;19.39;100.00
63715;BME280;49858;48.956;9.076;2023-08-31T12:51:31;98506.78;;;19.55;100.00
63715;BME280;49858;48.956;9.076;2023-08-31T12:53:59;98506.03;;;19.82;100.00
63715;BME280;49858;48.956;9.076;2023-08-31T12:56:27;98514.03;;;20.03;100.00
63715;BME280;49858;48.956;9.076;2023-08-31T12:58:54;98508.16;;;19.44;100.00
63715;BME280;49858;48.956;9.076;2023-08-31T13:01:22;98511.97;;;19.84;100.00
63715;BME280;49858;48.956;9.076;2023-08-31T13:03:52;98501.78;;;19.97;100.00